sensor_id;sensor_type;location;lat;lon;timestamp;temperature;humidity
65038;DHT22;51605;47.040;15.294;2023-05-10T00:01:12;21.50;58.90
65038;DHT22;51605;47.040;15.294;2023-05-10T00:03:38;21.50;58.90
65038;DHT22;51605;47.040;15.294;2023-05-10T00:06:03;21.50;58.90
65038;DHT22;51605;47.040;15.294;2023-05-10T00:08:29;21.50;59.00
65038;DHT22;51605;47.040;15.294;2023-05-10T00:10:55;21.50;58.90
65038;DHT22;51605;47.040;15.294;2023-05-10T00:13:21;21.50;59.00
65038;DHT22;51605;47.040;15.294;2023-05-10T00:15:47;21.50;59.10
65038;DHT22;51605;47.040;15.294;2023-05-10T00:18:13;21.50;59.00
65038;DHT22;51605;47.040;15.294;2023-05-10T00:20:38;21.50;59.00
65038;DHT22;51605;47.040;15.294;2023-05-10T00:23:04;21.50;59.00
65038;DHT22;51605;47.040;15.294;2023-05-10T00:25:30;21.50;59.00
65038;DHT22;51605;47.040;15.294;2023-05-10T00:27:55;21.50;59.00
65038;DHT22;51605;47.040;15.294;2023-05-10T00:30:22;21.50;59.00
65038;DHT22;51605;47.040;15.294;2023-05-10T00:32:48;21.50;59.00
65038;DHT22;51605;47.040;15.294;2023-05-10T00:35:15;21.50;59.90
65038;DHT22;51605;47.040;15.294;2023-05-10T00:37:41;21.50;59.00
65038;DHT22;51605;47.040;15.294;2023-05-10T00:40:07;21.50;59.00
65038;DHT22;51605;47.040;15.294;2023-05-10T00:42:32;21.50;59.00
65038;DHT22;51605;47.040;15.294;2023-05-10T00:44:58;21.50;59.00
65038;DHT22;51605;47.040;15.294;2023-05-10T00:47:24;21.50;58.90
65038;DHT22;51605;47.040;15.294;2023-05-10T00:49:50;21.50;58.90
65038;DHT22;51605;47.040;15.294;2023-05-10T00:52:16;21.50;59.00
65038;DHT22;51605;47.040;15.294;2023-05-10T00:54:41;21.50;59.00
65038;DHT22;51605;47.040;15.294;2023-05-10T00:57:07;21.50;58.90
65038;DHT22;51605;47.040;15.294;2023-05-10T00:59:33;21.50;59.00
65038;DHT22;51605;47.040;15.294;2023-05-10T01:01:59;21.50;59.00
65038;DHT22;51605;47.040;15.294;2023-05-10T01:04:25;21.50;59.00
65038;DHT22;51605;47.040;15.294;2023-05-10T01:06:52;21.50;58.90
65038;DHT22;51605;47.040;15.294;2023-05-10T01:09:19;21.50;58.90
65038;DHT22;51605;47.040;15.294;2023-05-10T01:11:45;21.50;58.90
65038;DHT22;51605;47.040;15.294;2023-05-10T01:14:11;21.50;58.90
65038;DHT22;51605;47.040;15.294;2023-05-10T01:16:38;21.50;58.90
65038;DHT22;51605;47.040;15.294;2023-05-10T01:19:17;21.60;58.90
65038;DHT22;51605;47.040;15.294;2023-05-10T01:36:05;21.60;59.00
65038;DHT22;51605;47.040;15.294;2023-05-10T01:43:24;21.50;58.90
65038;DHT22;51605;47.040;15.294;2023-05-10T01:45:59;21.50;58.90
65038;DHT22;51605;47.040;15.294;2023-05-10T01:48:28;21.50;58.90
65038;DHT22;51605;47.040;15.294;2023-05-10T01:50:55;21.60;58.90
65038;DHT22;51605;47.040;15.294;2023-05-10T01:53:22;21.60;58.90
65038;DHT22;51605;47.040;15.294;2023-05-10T01:55:51;21.50;58.90
65038;DHT22;51605;47.040;15.294;2023-05-10T01:58:25;21.50;59.00
65038;DHT22;51605;47.040;15.294;2023-05-10T02:00:53;21.50;59.00
65038;DHT22;51605;47.040;15.294;2023-05-10T02:03:22;21.50;59.00
65038;DHT22;51605;47.040;15.294;2023-05-10T02:05:48;21.50;59.00
65038;DHT22;51605;47.040;15.294;2023-05-10T02:08:15;21.50;59.00
65038;DHT22;51605;47.040;15.294;2023-05-10T02:10:43;21.50;59.00
65038;DHT22;51605;47.040;15.294;2023-05-10T02:13:10;21.50;59.00
65038;DHT22;51605;47.040;15.294;2023-05-10T02:15:38;21.50;58.90
65038;DHT22;51605;47.040;15.294;2023-05-10T02:18:06;21.50;59.00
65038;DHT22;51605;47.040;15.294;2023-05-10T02:20:33;21.50;58.90
65038;DHT22;51605;47.040;15.294;2023-05-10T02:23:00;21.50;58.90
65038;DHT22;51605;47.040;15.294;2023-05-10T02:25:27;21.50;58.90
65038;DHT22;51605;47.040;15.294;2023-05-10T02:27:55;21.60;58.80
65038;DHT22;51605;47.040;15.294;2023-05-10T02:30:22;21.50;58.90
65038;DHT22;51605;47.040;15.294;2023-05-10T02:32:49;21.50;58.90
65038;DHT22;51605;47.040;15.294;2023-05-10T02:35:16;21.50;58.90
65038;DHT22;51605;47.040;15.294;2023-05-10T02:37:43;21.50;58.90
65038;DHT22;51605;47.040;15.294;2023-05-10T02:40:11;21.50;58.90
65038;DHT22;51605;47.040;15.294;2023-05-10T02:42:41;21.50;58.90
65038;DHT22;51605;47.040;15.294;2023-05-10T02:45:11;21.50;58.90
65038;DHT22;51605;47.040;15.294;2023-05-10T02:47:37;21.50;58.90
65038;DHT22;51605;47.040;15.294;2023-05-10T02:50:03;21.50;59.00
65038;DHT22;51605;47.040;15.294;2023-05-10T02:52:34;21.50;58.90
65038;DHT22;51605;47.040;15.294;2023-05-10T02:55:02;21.50;59.00
65038;DHT22;51605;47.040;15.294;2023-05-10T02:57:33;21.50;59.10
65038;DHT22;51605;47.040;15.294;2023-05-10T02:59:59;21.50;59.00
65038;DHT22;51605;47.040;15.294;2023-05-10T03:02:26;21.50;59.00
65038;DHT22;51605;47.040;15.294;2023-05-10T03:04:52;21.50;59.90
65038;DHT22;51605;47.040;15.294;2023-05-10T03:07:18;21.50;58.90
65038;DHT22;51605;47.040;15.294;2023-05-10T03:09:47;21.50;58.90
65038;DHT22;51605;47.040;15.294;2023-05-10T03:15:13;21.50;58.90
65038;DHT22;51605;47.040;15.294;2023-05-10T03:20:42;21.50;58.90
65038;DHT22;51605;47.040;15.294;2023-05-10T03:23:13;21.50;58.90
65038;DHT22;51605;47.040;15.294;2023-05-10T03:25:46;21.50;58.90
65038;DHT22;51605;47.040;15.294;2023-05-10T03:28:14;21.50;59.20
65038;DHT22;51605;47.040;15.294;2023-05-10T03:30:42;21.50;58.90
65038;DHT22;51605;47.040;15.294;2023-05-10T03:33:08;21.50;59.00
65038;DHT22;51605;47.040;15.294;2023-05-10T03:35:34;21.50;58.90
65038;DHT22;51605;47.040;15.294;2023-05-10T03:38:00;21.50;58.90
65038;DHT22;51605;47.040;15.294;2023-05-10T03:40:26;21.50;59.00
65038;DHT22;51605;47.040;15.294;2023-05-10T03:42:54;21.50;59.00
65038;DHT22;51605;47.040;15.294;2023-05-10T03:45:20;21.50;59.00
65038;DHT22;51605;47.040;15.294;2023-05-10T03:47:45;21.50;58.90
65038;DHT22;51605;47.040;15.294;2023-05-10T03:50:11;21.50;58.90
65038;DHT22;51605;47.040;15.294;2023-05-10T03:52:37;21.50;58.90
65038;DHT22;51605;47.040;15.294;2023-05-10T03:55:05;21.50;58.90
65038;DHT22;51605;47.040;15.294;2023-05-10T03:57:30;21.50;59.00
65038;DHT22;51605;47.040;15.294;2023-05-10T03:59:56;21.50;59.10
65038;DHT22;51605;47.040;15.294;2023-05-10T04:02:22;21.50;58.90
65038;DHT22;51605;47.040;15.294;2023-05-10T04:04:47;21.50;58.90
65038;DHT22;51605;47.040;15.294;2023-05-10T04:07:13;21.50;59.00
65038;DHT22;51605;47.040;15.294;2023-05-10T04:09:39;21.50;58.90
65038;DHT22;51605;47.040;15.294;2023-05-10T04:12:05;21.50;58.90
65038;DHT22;51605;47.040;15.294;2023-05-10T04:14:31;21.50;58.90
65038;DHT22;51605;47.040;15.294;2023-05-10T04:16:57;21.50;58.90
65038;DHT22;51605;47.040;15.294;2023-05-10T04:19:22;21.50;58.90
65038;DHT22;51605;47.040;15.294;2023-05-10T04:21:48;21.50;58.90
65038;DHT22;51605;47.040;15.294;2023-05-10T04:24:14;21.50;58.90
65038;DHT22;51605;47.040;15.294;2023-05-10T04:26:40;21.50;58.90
65038;DHT22;51605;47.040;15.294;2023-05-10T04:29:06;21.50;59.00
65038;DHT22;51605;47.040;15.294;2023-05-10T04:31:31;21.50;58.80
65038;DHT22;51605;47.040;15.294;2023-05-10T04:33:57;21.50;58.90
65038;DHT22;51605;47.040;15.294;2023-05-10T04:36:22;21.50;58.90
65038;DHT22;51605;47.040;15.294;2023-05-10T04:38:48;21.50;58.90
65038;DHT22;51605;47.040;15.294;2023-05-10T04:41:13;21.50;58.90
65038;DHT22;51605;47.040;15.294;2023-05-10T04:43:39;21.50;58.90
65038;DHT22;51605;47.040;15.294;2023-05-10T04:46:05;21.50;58.80
65038;DHT22;51605;47.040;15.294;2023-05-10T04:48:31;21.50;58.90
65038;DHT22;51605;47.040;15.294;2023-05-10T04:50:57;21.50;58.90
65038;DHT22;51605;47.040;15.294;2023-05-10T04:53:22;21.50;58.80
65038;DHT22;51605;47.040;15.294;2023-05-10T04:55:48;21.50;58.90
65038;DHT22;51605;47.040;15.294;2023-05-10T04:58:14;21.50;58.80
65038;DHT22;51605;47.040;15.294;2023-05-10T05:00:40;21.60;58.80
65038;DHT22;51605;47.040;15.294;2023-05-10T05:03:05;21.50;58.90
65038;DHT22;51605;47.040;15.294;2023-05-10T05:05:31;21.50;58.90
65038;DHT22;51605;47.040;15.294;2023-05-10T05:07:57;21.50;58.90
65038;DHT22;51605;47.040;15.294;2023-05-10T05:10:22;21.50;58.80
65038;DHT22;51605;47.040;15.294;2023-05-10T05:12:48;21.50;58.80
65038;DHT22;51605;47.040;15.294;2023-05-10T05:15:13;21.50;58.80
65038;DHT22;51605;47.040;15.294;2023-05-10T05:17:42;21.50;58.80
65038;DHT22;51605;47.040;15.294;2023-05-10T05:20:08;21.50;58.90
65038;DHT22;51605;47.040;15.294;2023-05-10T05:22:33;21.50;58.90
65038;DHT22;51605;47.040;15.294;2023-05-10T05:24:59;21.50;58.90
65038;DHT22;51605;47.040;15.294;2023-05-10T05:27:25;21.50;58.90
65038;DHT22;51605;47.040;15.294;2023-05-10T05:29:56;21.50;58.90
65038;DHT22;51605;47.040;15.294;2023-05-10T05:32:23;21.50;58.90
65038;DHT22;51605;47.040;15.294;2023-05-10T05:34:49;21.50;58.90
65038;DHT22;51605;47.040;15.294;2023-05-10T05:37:16;21.50;58.90
65038;DHT22;51605;47.040;15.294;2023-05-10T05:39:42;21.50;58.90
65038;DHT22;51605;47.040;15.294;2023-05-10T05:42:09;21.50;58.80
65038;DHT22;51605;47.040;15.294;2023-05-10T05:44:35;21.50;58.80
65038;DHT22;51605;47.040;15.294;2023-05-10T05:47:01;21.50;58.70
65038;DHT22;51605;47.040;15.294;2023-05-10T05:49:27;21.60;58.70
65038;DHT22;51605;47.040;15.294;2023-05-10T05:51:52;21.60;58.80
65038;DHT22;51605;47.040;15.294;2023-05-10T05:54:18;21.50;58.70
65038;DHT22;51605;47.040;15.294;2023-05-10T05:56:44;21.50;58.80
65038;DHT22;51605;47.040;15.294;2023-05-10T05:59:10;21.50;58.80
65038;DHT22;51605;47.040;15.294;2023-05-10T06:01:36;21.50;58.80
65038;DHT22;51605;47.040;15.294;2023-05-10T06:04:02;21.50;58.90
65038;DHT22;51605;47.040;15.294;2023-05-10T06:06:28;21.50;58.90
65038;DHT22;51605;47.040;15.294;2023-05-10T06:08:54;21.50;58.80
65038;DHT22;51605;47.040;15.294;2023-05-10T06:11:20;21.50;58.80
65038;DHT22;51605;47.040;15.294;2023-05-10T06:13:49;21.50;58.60
65038;DHT22;51605;47.040;15.294;2023-05-10T06:16:15;21.50;58.80
65038;DHT22;51605;47.040;15.294;2023-05-10T06:18:41;21.50;58.80
65038;DHT22;51605;47.040;15.294;2023-05-10T06:21:06;21.50;58.80
65038;DHT22;51605;47.040;15.294;2023-05-10T06:23:32;21.50;58.80
65038;DHT22;51605;47.040;15.294;2023-05-10T06:25:58;21.50;58.80
65038;DHT22;51605;47.040;15.294;2023-05-10T06:28:23;21.50;58.80
65038;DHT22;51605;47.040;15.294;2023-05-10T06:30:49;21.50;58.90
65038;DHT22;51605;47.040;15.294;2023-05-10T06:33:14;21.50;58.90
65038;DHT22;51605;47.040;15.294;2023-05-10T06:35:41;21.50;58.80
65038;DHT22;51605;47.040;15.294;2023-05-10T06:38:07;21.50;58.80
65038;DHT22;51605;47.040;15.294;2023-05-10T06:40:32;21.50;58.80
65038;DHT22;51605;47.040;15.294;2023-05-10T06:42:58;21.50;58.80
65038;DHT22;51605;47.040;15.294;2023-05-10T06:45:24;21.50;58.90
65038;DHT22;51605;47.040;15.294;2023-05-10T06:47:49;21.50;58.90
65038;DHT22;51605;47.040;15.294;2023-05-10T06:50:15;21.50;58.90
65038;DHT22;51605;47.040;15.294;2023-05-10T06:52:41;21.50;58.90
65038;DHT22;51605;47.040;15.294;2023-05-10T06:55:07;21.50;58.90
65038;DHT22;51605;47.040;15.294;2023-05-10T06:57:33;21.50;58.90
65038;DHT22;51605;47.040;15.294;2023-05-10T06:59:59;21.50;59.00
65038;DHT22;51605;47.040;15.294;2023-05-10T07:02:25;21.50;58.90
65038;DHT22;51605;47.040;15.294;2023-05-10T07:04:50;21.50;58.90
65038;DHT22;51605;47.040;15.294;2023-05-10T07:07:17;21.50;59.00
65038;DHT22;51605;47.040;15.294;2023-05-10T07:09:43;21.50;58.90
65038;DHT22;51605;47.040;15.294;2023-05-10T07:12:08;21.50;58.90
65038;DHT22;51605;47.040;15.294;2023-05-10T07:14:35;21.50;58.70
65038;DHT22;51605;47.040;15.294;2023-05-10T07:17:00;21.50;58.80
65038;DHT22;51605;47.040;15.294;2023-05-10T07:19:26;21.60;58.70
65038;DHT22;51605;47.040;15.294;2023-05-10T07:21:52;21.50;58.70
65038;DHT22;51605;47.040;15.294;2023-05-10T07:24:17;21.50;58.70
65038;DHT22;51605;47.040;15.294;2023-05-10T07:26:44;21.50;58.70
65038;DHT22;51605;47.040;15.294;2023-05-10T07:29:10;21.50;58.70
65038;DHT22;51605;47.040;15.294;2023-05-10T07:31:36;21.50;58.70
65038;DHT22;51605;47.040;15.294;2023-05-10T07:34:01;21.50;58.70
65038;DHT22;51605;47.040;15.294;2023-05-10T07:36:27;21.50;58.70
65038;DHT22;51605;47.040;15.294;2023-05-10T07:38:53;21.50;58.70
65038;DHT22;51605;47.040;15.294;2023-05-10T07:41:18;21.50;58.80
65038;DHT22;51605;47.040;15.294;2023-05-10T07:43:44;21.50;58.90
65038;DHT22;51605;47.040;15.294;2023-05-10T07:46:10;21.50;59.00
65038;DHT22;51605;47.040;15.294;2023-05-10T07:48:36;21.50;59.10
65038;DHT22;51605;47.040;15.294;2023-05-10T07:51:02;21.50;59.10
65038;DHT22;51605;47.040;15.294;2023-05-10T07:53:28;21.50;59.10
65038;DHT22;51605;47.040;15.294;2023-05-10T07:55:56;21.50;59.20
65038;DHT22;51605;47.040;15.294;2023-05-10T07:58:23;21.50;59.30
65038;DHT22;51605;47.040;15.294;2023-05-10T08:00:49;21.50;59.30
65038;DHT22;51605;47.040;15.294;2023-05-10T08:03:15;21.50;59.30
65038;DHT22;51605;47.040;15.294;2023-05-10T08:05:40;21.50;59.30
65038;DHT22;51605;47.040;15.294;2023-05-10T08:08:06;21.50;59.30
65038;DHT22;51605;47.040;15.294;2023-05-10T08:10:32;21.50;59.30
65038;DHT22;51605;47.040;15.294;2023-05-10T08:12:58;21.50;59.30
65038;DHT22;51605;47.040;15.294;2023-05-10T08:15:24;21.50;59.30
65038;DHT22;51605;47.040;15.294;2023-05-10T08:17:51;21.50;59.30
65038;DHT22;51605;47.040;15.294;2023-05-10T08:20:17;21.60;59.30
65038;DHT22;51605;47.040;15.294;2023-05-10T08:22:45;21.60;59.40
65038;DHT22;51605;47.040;15.294;2023-05-10T08:25:11;21.50;59.30
65038;DHT22;51605;47.040;15.294;2023-05-10T08:27:36;21.60;60.30
65038;DHT22;51605;47.040;15.294;2023-05-10T08:30:02;21.60;59.30
65038;DHT22;51605;47.040;15.294;2023-05-10T08:32:29;21.50;59.30
65038;DHT22;51605;47.040;15.294;2023-05-10T08:34:55;21.60;59.30
65038;DHT22;51605;47.040;15.294;2023-05-10T08:37:22;21.60;59.20
65038;DHT22;51605;47.040;15.294;2023-05-10T08:39:48;21.60;59.30
65038;DHT22;51605;47.040;15.294;2023-05-10T08:42:16;21.50;59.10
65038;DHT22;51605;47.040;15.294;2023-05-10T08:44:45;21.60;60.00
65038;DHT22;51605;47.040;15.294;2023-05-10T08:47:15;21.60;60.10
65038;DHT22;51605;47.040;15.294;2023-05-10T08:49:41;21.60;59.60
65038;DHT22;51605;47.040;15.294;2023-05-10T08:52:11;21.60;59.10
65038;DHT22;51605;47.040;15.294;2023-05-10T08:54:38;21.60;59.20
65038;DHT22;51605;47.040;15.294;2023-05-10T08:57:04;21.60;59.10
65038;DHT22;51605;47.040;15.294;2023-05-10T08:59:30;21.60;59.00
65038;DHT22;51605;47.040;15.294;2023-05-10T09:01:57;21.60;58.90
65038;DHT22;51605;47.040;15.294;2023-05-10T09:04:24;21.60;58.80
65038;DHT22;51605;47.040;15.294;2023-05-10T09:06:50;21.60;58.80
65038;DHT22;51605;47.040;15.294;2023-05-10T09:09:17;21.60;58.80
65038;DHT22;51605;47.040;15.294;2023-05-10T09:11:43;21.60;58.90
65038;DHT22;51605;47.040;15.294;2023-05-10T09:14:10;21.60;58.90
65038;DHT22;51605;47.040;15.294;2023-05-10T09:16:36;21.60;58.90
65038;DHT22;51605;47.040;15.294;2023-05-10T09:19:02;21.50;58.80
65038;DHT22;51605;47.040;15.294;2023-05-10T09:21:28;21.60;58.80
65038;DHT22;51605;47.040;15.294;2023-05-10T09:23:55;21.60;58.80
65038;DHT22;51605;47.040;15.294;2023-05-10T09:26:24;21.60;58.70
65038;DHT22;51605;47.040;15.294;2023-05-10T09:28:54;21.50;58.60
65038;DHT22;51605;47.040;15.294;2023-05-10T09:31:21;21.60;58.70
65038;DHT22;51605;47.040;15.294;2023-05-10T09:33:48;21.60;58.50
65038;DHT22;51605;47.040;15.294;2023-05-10T09:36:15;21.50;58.60
65038;DHT22;51605;47.040;15.294;2023-05-10T09:38:51;21.60;59.60
65038;DHT22;51605;47.040;15.294;2023-05-10T09:41:22;21.60;59.60
65038;DHT22;51605;47.040;15.294;2023-05-10T09:43:48;21.60;59.70
65038;DHT22;51605;47.040;15.294;2023-05-10T09:46:17;21.60;61.00
65038;DHT22;51605;47.040;15.294;2023-05-10T09:48:45;21.70;60.60
65038;DHT22;51605;47.040;15.294;2023-05-10T09:51:21;21.80;60.70
65038;DHT22;51605;47.040;15.294;2023-05-10T09:53:47;21.80;60.80
65038;DHT22;51605;47.040;15.294;2023-05-10T09:56:32;21.90;60.90
65038;DHT22;51605;47.040;15.294;2023-05-10T09:59:03;21.90;60.80
65038;DHT22;51605;47.040;15.294;2023-05-10T10:01:29;22.10;60.80
65038;DHT22;51605;47.040;15.294;2023-05-10T10:03:54;22.10;60.50
65038;DHT22;51605;47.040;15.294;2023-05-10T10:06:23;22.20;60.60
65038;DHT22;51605;47.040;15.294;2023-05-10T10:08:49;22.20;60.50
65038;DHT22;51605;47.040;15.294;2023-05-10T10:11:15;22.30;60.50
65038;DHT22;51605;47.040;15.294;2023-05-10T10:13:41;22.30;60.30
65038;DHT22;51605;47.040;15.294;2023-05-10T10:16:08;22.40;60.20
65038;DHT22;51605;47.040;15.294;2023-05-10T10:18:36;22.40;60.20
65038;DHT22;51605;47.040;15.294;2023-05-10T10:21:06;22.40;60.00
65038;DHT22;51605;47.040;15.294;2023-05-10T10:23:32;22.40;59.90
65038;DHT22;51605;47.040;15.294;2023-05-10T10:25:58;22.50;59.90
65038;DHT22;51605;47.040;15.294;2023-05-10T10:31:46;22.40;60.00
65038;DHT22;51605;47.040;15.294;2023-05-10T10:34:28;22.30;60.00
65038;DHT22;51605;47.040;15.294;2023-05-10T10:36:56;22.30;60.10
65038;DHT22;51605;47.040;15.294;2023-05-10T10:39:22;22.20;60.10
65038;DHT22;51605;47.040;15.294;2023-05-10T10:41:55;22.20;60.20
65038;DHT22;51605;47.040;15.294;2023-05-10T10:57:57;22.00;60.50
65038;DHT22;51605;47.040;15.294;2023-05-10T11:00:33;22.00;61.40
65038;DHT22;51605;47.040;15.294;2023-05-10T11:07:59;21.90;60.50
65038;DHT22;51605;47.040;15.294;2023-05-10T11:10:26;21.90;60.60
65038;DHT22;51605;47.040;15.294;2023-05-10T11:13:05;21.90;60.60
65038;DHT22;51605;47.040;15.294;2023-05-10T11:15:48;21.90;60.60
65038;DHT22;51605;47.040;15.294;2023-05-10T11:18:29;21.90;60.90
65038;DHT22;51605;47.040;15.294;2023-05-10T11:23:30;21.90;61.00
65038;DHT22;51605;47.040;15.294;2023-05-10T11:25:55;21.90;60.90
65038;DHT22;51605;47.040;15.294;2023-05-10T11:28:21;21.90;61.10
65038;DHT22;51605;47.040;15.294;2023-05-10T11:30:47;21.90;61.10
65038;DHT22;51605;47.040;15.294;2023-05-10T11:33:17;21.90;61.20
65038;DHT22;51605;47.040;15.294;2023-05-10T11:35:43;21.90;61.40
65038;DHT22;51605;47.040;15.294;2023-05-10T11:38:12;21.90;61.20
65038;DHT22;51605;47.040;15.294;2023-05-10T11:40:39;21.90;61.30
65038;DHT22;51605;47.040;15.294;2023-05-10T11:43:05;21.90;61.30
65038;DHT22;51605;47.040;15.294;2023-05-10T11:45:34;21.90;61.40
65038;DHT22;51605;47.040;15.294;2023-05-10T11:48:01;21.90;61.20
65038;DHT22;51605;47.040;15.294;2023-05-10T11:50:27;21.90;61.20
65038;DHT22;51605;47.040;15.294;2023-05-10T11:52:57;21.80;61.20
65038;DHT22;51605;47.040;15.294;2023-05-10T11:55:23;21.80;61.30
65038;DHT22;51605;47.040;15.294;2023-05-10T11:57:53;21.90;61.30
65038;DHT22;51605;47.040;15.294;2023-05-10T12:00:20;21.90;61.40
65038;DHT22;51605;47.040;15.294;2023-05-10T12:02:46;21.90;61.20
65038;DHT22;51605;47.040;15.294;2023-05-10T12:05:12;21.90;61.10
65038;DHT22;51605;47.040;15.294;2023-05-10T12:07:38;21.90;61.10
65038;DHT22;51605;47.040;15.294;2023-05-10T12:10:11;21.90;61.00
65038;DHT22;51605;47.040;15.294;2023-05-10T12:12:47;21.90;61.00
65038;DHT22;51605;47.040;15.294;2023-05-10T12:15:23;21.90;61.10
65038;DHT22;51605;47.040;15.294;2023-05-10T12:17:50;21.90;61.20
65038;DHT22;51605;47.040;15.294;2023-05-10T12:20:20;21.90;61.20
65038;DHT22;51605;47.040;15.294;2023-05-10T12:22:51;21.90;61.30
65038;DHT22;51605;47.040;15.294;2023-05-10T12:25:18;21.90;61.20
65038;DHT22;51605;47.040;15.294;2023-05-10T12:27:57;21.90;61.40
65038;DHT22;51605;47.040;15.294;2023-05-10T12:30:27;21.90;61.40
65038;DHT22;51605;47.040;15.294;2023-05-10T12:32:54;21.90;61.40
65038;DHT22;51605;47.040;15.294;2023-05-10T12:35:24;21.90;61.10
65038;DHT22;51605;47.040;15.294;2023-05-10T12:37:53;21.80;60.80
65038;DHT22;51605;47.040;15.294;2023-05-10T12:40:18;21.80;60.90
65038;DHT22;51605;47.040;15.294;2023-05-10T12:42:44;21.80;60.80
65038;DHT22;51605;47.040;15.294;2023-05-10T12:45:10;21.80;60.80
65038;DHT22;51605;47.040;15.294;2023-05-10T12:47:37;21.80;60.70
65038;DHT22;51605;47.040;15.294;2023-05-10T12:50:03;21.80;60.60
65038;DHT22;51605;47.040;15.294;2023-05-10T12:52:30;21.80;60.70
65038;DHT22;51605;47.040;15.294;2023-05-10T12:54:57;21.80;60.70
65038;DHT22;51605;47.040;15.294;2023-05-10T12:57:23;21.80;60.70
65038;DHT22;51605;47.040;15.294;2023-05-10T12:59:49;21.70;60.60
65038;DHT22;51605;47.040;15.294;2023-05-10T13:02:15;21.70;60.60
65038;DHT22;51605;47.040;15.294;2023-05-10T13:04:43;21.70;60.60
65038;DHT22;51605;47.040;15.294;2023-05-10T13:07:09;21.70;60.50
65038;DHT22;51605;47.040;15.294;2023-05-10T13:09:35;21.70;60.50
65038;DHT22;51605;47.040;15.294;2023-05-10T13:12:01;21.70;60.50
65038;DHT22;51605;47.040;15.294;2023-05-10T13:14:27;21.70;60.40
65038;DHT22;51605;47.040;15.294;2023-05-10T13:16:53;21.70;60.40
65038;DHT22;51605;47.040;15.294;2023-05-10T13:19:19;21.70;60.40
65038;DHT22;51605;47.040;15.294;2023-05-10T13:21:46;21.70;60.30
65038;DHT22;51605;47.040;15.294;2023-05-10T13:24:12;21.70;60.30
65038;DHT22;51605;47.040;15.294;2023-05-10T13:26:42;21.70;60.10
65038;DHT22;51605;47.040;15.294;2023-05-10T13:29:08;21.70;60.00
65038;DHT22;51605;47.040;15.294;2023-05-10T13:31:34;21.70;59.80
65038;DHT22;51605;47.040;15.294;2023-05-10T13:34:00;21.70;59.80
65038;DHT22;51605;47.040;15.294;2023-05-10T13:36:25;21.70;59.60
65038;DHT22;51605;47.040;15.294;2023-05-10T13:38:51;21.70;59.50
65038;DHT22;51605;47.040;15.294;2023-05-10T13:41:17;21.70;59.60
65038;DHT22;51605;47.040;15.294;2023-05-10T13:43:43;21.70;59.50
65038;DHT22;51605;47.040;15.294;2023-05-10T13:46:08;21.70;59.50
65038;DHT22;51605;47.040;15.294;2023-05-10T13:48:34;21.70;59.40
65038;DHT22;51605;47.040;15.294;2023-05-10T13:51:02;21.70;59.40
65038;DHT22;51605;47.040;15.294;2023-05-10T13:53:27;21.70;59.40
65038;DHT22;51605;47.040;15.294;2023-05-10T13:55:53;21.70;59.40
65038;DHT22;51605;47.040;15.294;2023-05-10T13:58:19;21.70;59.40
65038;DHT22;51605;47.040;15.294;2023-05-10T14:00:45;21.70;59.40
65038;DHT22;51605;47.040;15.294;2023-05-10T14:03:10;21.70;59.40
65038;DHT22;51605;47.040;15.294;2023-05-10T14:05:36;21.70;59.30
65038;DHT22;51605;47.040;15.294;2023-05-10T14:08:02;21.60;59.40
65038;DHT22;51605;47.040;15.294;2023-05-10T14:10:28;21.70;59.40
65038;DHT22;51605;47.040;15.294;2023-05-10T14:12:53;21.70;59.30
65038;DHT22;51605;47.040;15.294;2023-05-10T14:15:19;21.70;59.30
65038;DHT22;51605;47.040;15.294;2023-05-10T14:17:44;21.70;59.20
65038;DHT22;51605;47.040;15.294;2023-05-10T14:20:11;21.70;59.40
65038;DHT22;51605;47.040;15.294;2023-05-10T14:22:36;21.70;59.30
65038;DHT22;51605;47.040;15.294;2023-05-10T14:25:02;21.70;59.20
65038;DHT22;51605;47.040;15.294;2023-05-10T14:27:28;21.70;59.30
65038;DHT22;51605;47.040;15.294;2023-05-10T14:29:54;21.60;59.30
65038;DHT22;51605;47.040;15.294;2023-05-10T14:32:20;21.60;59.30
65038;DHT22;51605;47.040;15.294;2023-05-10T14:34:45;21.60;59.20
65038;DHT22;51605;47.040;15.294;2023-05-10T14:37:12;21.70;59.20
65038;DHT22;51605;47.040;15.294;2023-05-10T14:39:38;21.60;59.20
65038;DHT22;51605;47.040;15.294;2023-05-10T14:42:04;21.60;59.20
65038;DHT22;51605;47.040;15.294;2023-05-10T14:44:30;21.70;59.20
65038;DHT22;51605;47.040;15.294;2023-05-10T14:46:55;21.60;59.20
65038;DHT22;51605;47.040;15.294;2023-05-10T14:49:22;21.60;59.20
65038;DHT22;51605;47.040;15.294;2023-05-10T14:51:48;21.60;59.20
65038;DHT22;51605;47.040;15.294;2023-05-10T14:54:14;21.60;59.20
65038;DHT22;51605;47.040;15.294;2023-05-10T14:56:39;21.60;59.10
65038;DHT22;51605;47.040;15.294;2023-05-10T14:59:06;21.60;59.20
65038;DHT22;51605;47.040;15.294;2023-05-10T15:01:32;21.70;59.10
65038;DHT22;51605;47.040;15.294;2023-05-10T15:03:58;21.70;59.00
65038;DHT22;51605;47.040;15.294;2023-05-10T15:06:30;21.70;59.10
65038;DHT22;51605;47.040;15.294;2023-05-10T15:08:57;21.60;59.10
65038;DHT22;51605;47.040;15.294;2023-05-10T15:11:22;21.60;59.20
65038;DHT22;51605;47.040;15.294;2023-05-10T15:13:48;21.60;59.10
65038;DHT22;51605;47.040;15.294;2023-05-10T15:16:13;21.60;59.20
65038;DHT22;51605;47.040;15.294;2023-05-10T15:18:39;21.60;59.10
65038;DHT22;51605;47.040;15.294;2023-05-10T15:21:05;21.60;59.10
65038;DHT22;51605;47.040;15.294;2023-05-10T15:23:30;21.60;59.10
65038;DHT22;51605;47.040;15.294;2023-05-10T15:25:56;21.70;59.10
65038;DHT22;51605;47.040;15.294;2023-05-10T15:28:22;21.70;59.10
65038;DHT22;51605;47.040;15.294;2023-05-10T15:30:48;21.70;59.20
65038;DHT22;51605;47.040;15.294;2023-05-10T15:33:14;21.60;59.10
65038;DHT22;51605;47.040;15.294;2023-05-10T15:35:39;21.60;59.10
65038;DHT22;51605;47.040;15.294;2023-05-10T15:38:06;21.60;59.10
65038;DHT22;51605;47.040;15.294;2023-05-10T15:40:32;21.70;59.10
65038;DHT22;51605;47.040;15.294;2023-05-10T15:42:58;21.60;59.10
65038;DHT22;51605;47.040;15.294;2023-05-10T15:45:24;21.60;59.10
65038;DHT22;51605;47.040;15.294;2023-05-10T15:47:50;21.60;59.10
65038;DHT22;51605;47.040;15.294;2023-05-10T15:50:15;21.60;59.10
65038;DHT22;51605;47.040;15.294;2023-05-10T15:52:42;21.60;59.10
65038;DHT22;51605;47.040;15.294;2023-05-10T15:55:08;21.70;59.20
65038;DHT22;51605;47.040;15.294;2023-05-10T15:57:38;21.70;59.10
65038;DHT22;51605;47.040;15.294;2023-05-10T16:00:05;21.60;59.00
65038;DHT22;51605;47.040;15.294;2023-05-10T16:02:31;21.70;59.20